Time;durP1;ratioP1;P1;durP2;ratioP2;P2;SDS_P1;SDS_P2;PMS_P1;PMS_P2;Temp;Humidity;BMP_temperature;BMP_pressure;BME280_temperature;BME280_humidity;BME280_pressure;Samples;Min_cycle;Max_cycle;Signal;HPM_P1;HPM_P2
2024/03/22 00:01:19;;;;;;;52.92;29.20;;;;;;;;;;7556809;19;20029;-71
2024/03/22 00:03:51;;;;;;;59.08;30.70;;;;;;;;;;7562371;19;20015;-71
2024/03/22 00:06:22;;;;;;;56.92;32.03;;;;;;;;;;7579185;19;20593;-74
2024/03/22 00:08:54;;;;;;;60.35;31.25;;;;;;;;;;7575094;19;20022;-74
2024/03/22 00:11:25;;;;;;;57.25;30.95;;;;;;;;;;7588172;19;20036;-74
2024/03/22 00:13:57;;;;;;;61.72;33.92;;;;;;;;;;7591577;19;20018;-73
2024/03/22 00:16:29;;;;;;;58.88;32.90;;;;;;;;;;7595268;19;20379;-73
2024/03/22 00:19:00;;;;;;;57.65;30.73;;;;;;;;;;7594203;19;20598;-73
2024/03/22 00:21:32;;;;;;;56.58;32.55;;;;;;;;;;7594068;19;20021;-73
2024/03/22 00:24:04;;;;;;;58.70;32.15;;;;;;;;;;7591223;19;20018;-73
2024/03/22 00:26:35;;;;;;;62.42;32.72;;;;;;;;;;7590084;19;20510;-73
2024/03/22 00:29:07;;;;;;;55.45;31.33;;;;;;;;;;7591984;19;20023;-73
2024/03/22 00:31:38;;;;;;;50.97;29.67;;;;;;;;;;7584673;19;20022;-73
2024/03/22 00:34:10;;;;;;;61.65;33.72;;;;;;;;;;7595197;19;20457;-73
2024/03/22 00:36:41;;;;;;;58.38;31.40;;;;;;;;;;7588044;19;20026;-72
2024/03/22 00:39:13;;;;;;;65.53;33.53;;;;;;;;;;7580402;19;20597;-73
2024/03/22 00:41:44;;;;;;;55.88;32.90;;;;;;;;;;7599678;19;20019;-73
2024/03/22 00:44:15;;;;;;;64.78;33.13;;;;;;;;;;7593762;19;20029;-73
2024/03/22 00:46:47;;;;;;;64.63;31.35;;;;;;;;;;7589574;19;20014;-73
2024/03/22 00:49:18;;;;;;;64.03;35.53;;;;;;;;;;7597052;19;20014;-73
2024/03/22 00:51:50;;;;;;;59.40;32.65;;;;;;;;;;7590589;19;20010;-73
2024/03/22 00:54:22;;;;;;;55.05;30.75;;;;;;;;;;7593164;19;20018;-73
2024/03/22 00:56:53;;;;;;;51.63;30.35;;;;;;;;;;7584269;19;20361;-73
2024/03/22 00:59:25;;;;;;;53.85;30.02;;;;;;;;;;7538935;19;20023;-73
2024/03/22 01:01:56;;;;;;;46.58;26.98;;;;;;;;;;7586844;19;20037;-73
2024/03/22 01:04:27;;;;;;;50.53;27.92;;;;;;;;;;7530903;19;20630;-73
2024/03/22 01:06:59;;;;;;;48.03;27.02;;;;;;;;;;7547746;19;20026;-73
2024/03/22 01:09:31;;;;;;;51.85;28.92;;;;;;;;;;7533088;19;20971;-73
2024/03/22 01:12:03;;;;;;;45.70;26.35;;;;;;;;;;7560427;19;20014;-73
2024/03/22 01:14:35;;;;;;;44.92;25.08;;;;;;;;;;7571035;19;20038;-73
2024/03/22 01:17:06;;;;;;;50.85;26.05;;;;;;;;;;7558862;19;20071;-73
2024/03/22 01:19:38;;;;;;;43.67;26.23;;;;;;;;;;7575187;19;20658;-73
2024/03/22 01:22:10;;;;;;;50.38;26.80;;;;;;;;;;7569090;19;20089;-73
2024/03/22 01:24:42;;;;;;;42.30;24.10;;;;;;;;;;7574136;19;20050;-73
2024/03/22 01:27:14;;;;;;;50.20;27.25;;;;;;;;;;7561226;19;20010;-72
2024/03/22 01:29:47;;;;;;;49.55;26.98;;;;;;;;;;7564637;19;20577;-72
2024/03/22 01:32:18;;;;;;;61.13;29.88;;;;;;;;;;7569911;19;20026;-72
2024/03/22 01:34:49;;;;;;;60.97;30.60;;;;;;;;;;7553673;19;20019;-72
2024/03/22 01:37:21;;;;;;;52.47;26.23;;;;;;;;;;7557284;19;20033;-72
2024/03/22 01:39:53;;;;;;;55.25;27.38;;;;;;;;;;7572082;19;20575;-72
2024/03/22 01:42:24;;;;;;;49.55;27.23;;;;;;;;;;7568177;19;20070;-72
2024/03/22 01:44:56;;;;;;;57.40;29.40;;;;;;;;;;7557439;19;20224;-72
2024/03/22 01:47:27;;;;;;;59.42;29.10;;;;;;;;;;7569472;19;20026;-72
2024/03/22 01:49:58;;;;;;;55.03;28.75;;;;;;;;;;7572342;19;20030;-71
2024/03/22 01:52:30;;;;;;;51.67;27.20;;;;;;;;;;7557234;19;20023;-72
2024/03/22 01:55:03;;;;;;;44.70;26.42;;;;;;;;;;7571248;19;20444;-72
2024/03/22 01:57:35;;;;;;;49.10;27.63;;;;;;;;;;7591450;19;21289;-72
2024/03/22 02:00:08;;;;;;;61.10;29.67;;;;;;;;;;7591019;19;20022;-72
2024/03/22 02:02:45;;;;;;;55.72;27.83;;;;;;;;;;7587333;19;20014;-72
2024/03/22 02:05:21;;;;;;;47.60;25.70;;;;;;;;;;7569371;19;20040;-71
2024/03/22 02:07:53;;;;;;;48.47;26.27;;;;;;;;;;7585230;19;20026;-72
2024/03/22 02:10:24;;;;;;;45.17;25.08;;;;;;;;;;7571762;19;20048;-72
2024/03/22 02:12:56;;;;;;;48.65;26.15;;;;;;;;;;7555469;19;20030;-72
2024/03/22 02:15:27;;;;;;;45.95;24.40;;;;;;;;;;7578185;19;20010;-72
2024/03/22 02:17:59;;;;;;;46.60;26.42;;;;;;;;;;7567786;19;20023;-73
2024/03/22 02:20:30;;;;;;;44.10;24.92;;;;;;;;;;7573707;19;21552;-73
2024/03/22 02:23:02;;;;;;;49.78;25.75;;;;;;;;;;7564546;19;20696;-73
2024/03/22 02:25:34;;;;;;;57.53;26.55;;;;;;;;;;7581989;19;20086;-72
2024/03/22 02:28:05;;;;;;;53.17;28.05;;;;;;;;;;7592866;19;21453;-73
2024/03/22 02:30:37;;;;;;;51.85;26.88;;;;;;;;;;7596604;19;20089;-73
2024/03/22 02:33:09;;;;;;;43.95;25.88;;;;;;;;;;7597930;19;20034;-73
2024/03/22 02:35:40;;;;;;;46.92;25.95;;;;;;;;;;7596124;19;21031;-73
2024/03/22 02:38:12;;;;;;;57.58;28.48;;;;;;;;;;7588535;19;20026;-73
2024/03/22 02:40:44;;;;;;;55.63;27.35;;;;;;;;;;7598509;19;20048;-73
2024/03/22 02:43:17;;;;;;;47.08;24.90;;;;;;;;;;7573962;19;20015;-73
2024/03/22 02:45:49;;;;;;;;;;;;;;;;;;7543467;19;20014;-73
2024/03/22 02:48:20;;;;;;;46.65;25.05;;;;;;;;;;7580929;19;19939;-73
2024/03/22 02:50:55;;;;;;;48.83;26.55;;;;;;;;;;7575258;19;20017;-73
2024/03/22 02:53:27;;;;;;;55.05;28.00;;;;;;;;;;7573701;19;20022;-73
2024/03/22 02:56:00;;;;;;;51.25;27.15;;;;;;;;;;7554397;19;22816;-73
2024/03/22 02:58:32;;;;;;;60.08;29.85;;;;;;;;;;7579172;19;20010;-73
2024/03/22 03:01:03;;;;;;;54.22;28.33;;;;;;;;;;7581774;19;20019;-73
2024/03/22 03:03:35;;;;;;;57.17;29.25;;;;;;;;;;7574171;19;20018;-73
2024/03/22 03:06:08;;;;;;;54.90;28.30;;;;;;;;;;7566712;19;20018;-73
2024/03/22 03:08:40;;;;;;;;;;;;;;;;;;7582433;19;20015;-73
2024/03/22 03:11:11;;;;;;;58.90;28.35;;;;;;;;;;7587001;19;20232;-73
2024/03/22 03:13:43;;;;;;;56.80;28.23;;;;;;;;;;7574290;19;20097;-74
2024/03/22 03:16:14;;;;;;;68.40;31.23;;;;;;;;;;7563517;19;20044;-73
2024/03/22 03:18:46;;;;;;;57.83;29.23;;;;;;;;;;7568715;19;20026;-73
2024/03/22 03:21:17;;;;;;;64.93;30.15;;;;;;;;;;7555263;19;20027;-72
2024/03/22 03:23:49;;;;;;;56.55;29.25;;;;;;;;;;7575972;19;20974;-72
2024/03/22 03:26:20;;;;;;;51.15;27.60;;;;;;;;;;7567176;19;20981;-72
2024/03/22 03:28:52;;;;;;;54.90;29.98;;;;;;;;;;7564140;19;20019;-72
2024/03/22 03:31:23;;;;;;;54.45;27.88;;;;;;;;;;7567623;19;20048;-72
2024/03/22 03:33:55;;;;;;;53.58;28.13;;;;;;;;;;7571858;19;20014;-72
2024/03/22 03:36:26;;;;;;;56.33;29.48;;;;;;;;;;7556970;19;20496;-72
2024/03/22 03:38:58;;;;;;;62.45;31.10;;;;;;;;;;7572357;19;20114;-72
2024/03/22 03:41:29;;;;;;;60.15;29.55;;;;;;;;;;7593412;19;20018;-72
2024/03/22 03:44:01;;;;;;;55.92;28.33;;;;;;;;;;7580570;19;20015;-73
2024/03/22 03:46:34;;;;;;;58.72;28.80;;;;;;;;;;7562738;19;20010;-73
2024/03/22 03:49:05;;;;;;;62.03;29.83;;;;;;;;;;7580856;19;20710;-72
2024/03/22 03:51:36;;;;;;;67.03;30.85;;;;;;;;;;7582883;19;20014;-72
2024/03/22 03:54:09;;;;;;;71.78;31.33;;;;;;;;;;7578375;19;20563;-73
2024/03/22 03:56:40;;;;;;;66.00;30.83;;;;;;;;;;7571615;19;20029;-72
2024/03/22 03:59:12;;;;;;;70.78;32.67;;;;;;;;;;7546115;19;20017;-72
2024/03/22 04:01:44;;;;;;;63.28;29.20;;;;;;;;;;7573406;19;20030;-73
2024/03/22 04:04:15;;;;;;;72.70;30.98;;;;;;;;;;7569379;19;20014;-72
2024/03/22 04:06:47;;;;;;;67.13;29.80;;;;;;;;;;7546906;19;20018;-73
2024/03/22 04:09:18;;;;;;;57.88;28.42;;;;;;;;;;7572206;19;20018;-72
2024/03/22 04:11:51;;;;;;;69.03;30.17;;;;;;;;;;7560148;19;20585;-72
2024/03/22 04:14:22;;;;;;;67.80;30.98;;;;;;;;;;7545033;19;20019;-72
2024/03/22 04:16:55;;;;;;;79.93;33.40;;;;;;;;;;7574025;19;20075;-72
2024/03/22 04:19:27;;;;;;;63.22;30.17;;;;;;;;;;7576299;19;20889;-73
2024/03/22 04:21:59;;;;;;;61.30;29.05;;;;;;;;;;7576812;19;20019;-72
2024/03/22 04:24:31;;;;;;;64.60;28.48;;;;;;;;;;7561254;19;20018;-72
2024/03/22 04:27:03;;;;;;;59.70;27.33;;;;;;;;;;7580961;19;20019;-72
2024/03/22 04:29:34;;;;;;;75.22;33.10;;;;;;;;;;7575361;19;20758;-73
2024/03/22 04:32:06;;;;;;;62.45;28.92;;;;;;;;;;7524836;19;20036;-73
2024/03/22 04:34:42;;;;;;;67.82;31.05;;;;;;;;;;7544019;19;20018;-72
2024/03/22 04:37:13;;;;;;;59.58;28.55;;;;;;;;;;7558936;19;20020;-72
2024/03/22 04:39:46;;;;;;;66.18;30.38;;;;;;;;;;7551560;19;20128;-72
2024/03/22 04:42:18;;;;;;;67.47;29.92;;;;;;;;;;7562696;19;20104;-72
2024/03/22 04:44:49;;;;;;;65.35;31.40;;;;;;;;;;7554730;19;20326;-72
2024/03/22 04:47:21;;;;;;;73.60;32.92;;;;;;;;;;7562817;19;20026;-72
2024/03/22 04:49:52;;;;;;;81.85;33.22;;;;;;;;;;7569300;19;20018;-73
2024/03/22 04:52:24;;;;;;;66.40;31.30;;;;;;;;;;7563860;19;20543;-72
2024/03/22 04:54:56;;;;;;;68.90;32.33;;;;;;;;;;7560602;19;20090;-73
2024/03/22 04:57:28;;;;;;;69.28;30.88;;;;;;;;;;7597628;19;20022;-73
2024/03/22 05:00:00;;;;;;;61.70;29.77;;;;;;;;;;7596215;19;20017;-74
2024/03/22 05:02:31;;;;;;;79.03;33.53;;;;;;;;;;7588741;19;20601;-72
2024/03/22 05:05:03;;;;;;;67.00;29.55;;;;;;;;;;7594165;19;20345;-72
2024/03/22 05:07:35;;;;;;;50.38;26.33;;;;;;;;;;7594132;19;20029;-72
2024/03/22 05:10:09;;;;;;;55.20;26.08;;;;;;;;;;7587928;19;20025;-72
2024/03/22 05:12:41;;;;;;;52.72;26.63;;;;;;;;;;7557675;19;20044;-72
2024/03/22 05:15:13;;;;;;;56.67;28.15;;;;;;;;;;7574861;19;20332;-72
2024/03/22 05:17:44;;;;;;;62.70;27.33;;;;;;;;;;7566319;19;20734;-72
2024/03/22 05:20:16;;;;;;;60.03;28.60;;;;;;;;;;7568485;19;20019;-72
2024/03/22 05:22:48;;;;;;;60.47;27.45;;;;;;;;;;7564146;19;20026;-72
2024/03/22 05:25:20;;;;;;;66.82;30.60;;;;;;;;;;7547352;19;20025;-74
2024/03/22 05:27:52;;;;;;;56.38;27.25;;;;;;;;;;7552095;19;20011;-74
2024/03/22 05:30:23;;;;;;;54.55;27.17;;;;;;;;;;7556674;19;20017;-73
2024/03/22 05:32:55;;;;;;;54.20;25.85;;;;;;;;;;7563330;19;20018;-74
2024/03/22 05:35:27;;;;;;;60.45;29.35;;;;;;;;;;7546750;19;20025;-72
2024/03/22 05:37:59;;;;;;;62.10;30.33;;;;;;;;;;7561234;19;20054;-73
2024/03/22 05:40:31;;;;;;;61.65;29.38;;;;;;;;;;7565526;19;20018;-74
2024/03/22 05:43:03;;;;;;;58.33;28.65;;;;;;;;;;7598832;19;20027;-73
2024/03/22 05:45:34;;;;;;;54.55;28.00;;;;;;;;;;7581325;19;20022;-72
2024/03/22 05:48:06;;;;;;;59.13;30.73;;;;;;;;;;7600964;19;21183;-71
2024/03/22 05:50:37;;;;;;;66.22;32.95;;;;;;;;;;7582786;19;20033;-72
2024/03/22 05:53:09;;;;;;;71.47;34.72;;;;;;;;;;7607688;19;20036;-74
2024/03/22 05:55:41;;;;;;;59.08;29.23;;;;;;;;;;7576230;19;20586;-72
2024/03/22 05:58:12;;;;;;;55.05;29.38;;;;;;;;;;7592021;19;20481;-72
2024/03/22 06:00:44;;;;;;;51.45;28.00;;;;;;;;;;7538867;19;20007;-72
2024/03/22 06:03:15;;;;;;;51.65;25.75;;;;;;;;;;7561358;19;20775;-73
2024/03/22 06:05:47;;;;;;;50.40;27.70;;;;;;;;;;7564817;19;20065;-73
2024/03/22 06:08:20;;;;;;;53.38;28.83;;;;;;;;;;7563365;19;20550;-73
2024/03/22 06:10:53;;;;;;;48.00;25.67;;;;;;;;;;7559966;19;20019;-72
2024/03/22 06:13:25;;;;;;;50.08;27.58;;;;;;;;;;7547230;19;20019;-73
2024/03/22 06:15:56;;;;;;;46.85;24.90;;;;;;;;;;7562670;19;20035;-73
2024/03/22 06:18:28;;;;;;;44.25;23.63;;;;;;;;;;7573379;19;20022;-73
2024/03/22 06:21:00;;;;;;;45.88;24.60;;;;;;;;;;7580811;19;20519;-73
2024/03/22 06:23:32;;;;;;;49.50;25.02;;;;;;;;;;7568108;19;20056;-73
2024/03/22 06:26:04;;;;;;;45.58;25.95;;;;;;;;;;7567737;19;20039;-73
2024/03/22 06:28:36;;;;;;;47.75;25.27;;;;;;;;;;7558312;19;20021;-73
2024/03/22 06:31:08;;;;;;;42.72;24.45;;;;;;;;;;7584308;19;20019;-73
2024/03/22 06:33:39;;;;;;;44.50;23.42;;;;;;;;;;7534641;19;20014;-72
2024/03/22 06:36:11;;;;;;;40.78;23.20;;;;;;;;;;7551333;19;20029;-73
2024/03/22 06:38:42;;;;;;;40.70;23.73;;;;;;;;;;7570821;19;20021;-72
2024/03/22 06:41:15;;;;;;;45.70;23.83;;;;;;;;;;7578399;19;21294;-73
2024/03/22 06:43:46;;;;;;;46.85;24.05;;;;;;;;;;7581840;19;20047;-73
2024/03/22 06:46:18;;;;;;;42.65;24.63;;;;;;;;;;7581386;19;20659;-73
2024/03/22 06:48:50;;;;;;;41.58;23.88;;;;;;;;;;7579974;19;20546;-73
2024/03/22 06:51:21;;;;;;;43.83;24.15;;;;;;;;;;7589230;19;20028;-73
2024/03/22 06:53:53;;;;;;;38.28;21.52;;;;;;;;;;7576266;19;20056;-72
2024/03/22 06:56:25;;;;;;;38.08;21.08;;;;;;;;;;7595852;19;20019;-73
2024/03/22 06:58:56;;;;;;;39.97;21.15;;;;;;;;;;7596538;19;20027;-72
2024/03/22 07:01:29;;;;;;;35.50;19.38;;;;;;;;;;7599161;19;20921;-73
2024/03/22 07:04:00;;;;;;;38.90;18.80;;;;;;;;;;7585091;19;20019;-73
2024/03/22 07:06:32;;;;;;;31.27;18.27;;;;;;;;;;7595101;19;20016;-73
2024/03/22 07:09:04;;;;;;;34.97;20.08;;;;;;;;;;7597821;19;20110;-73
2024/03/22 07:11:35;;;;;;;32.95;18.30;;;;;;;;;;7591544;19;20048;-73
2024/03/22 07:14:07;;;;;;;28.88;18.92;;;;;;;;;;7576568;19;20025;-73
2024/03/22 07:16:39;;;;;;;28.05;16.27;;;;;;;;;;7547477;19;20308;-74
2024/03/22 07:19:10;;;;;;;29.10;15.68;;;;;;;;;;7542258;19;20015;-71
2024/03/22 07:21:42;;;;;;;31.38;16.23;;;;;;;;;;7567408;19;20014;-71
2024/03/22 07:24:13;;;;;;;28.63;15.98;;;;;;;;;;7569352;19;20725;-73
2024/03/22 07:26:46;;;;;;;26.38;15.32;;;;;;;;;;7573025;19;20898;-73
2024/03/22 07:29:17;;;;;;;23.20;14.07;;;;;;;;;;7574994;19;20113;-73
2024/03/22 07:31:49;;;;;;;23.50;14.32;;;;;;;;;;7564587;19;20022;-72
2024/03/22 07:34:21;;;;;;;22.08;14.05;;;;;;;;;;7553735;19;20011;-74
2024/03/22 07:36:53;;;;;;;24.52;14.02;;;;;;;;;;7579029;19;22653;-71
2024/03/22 07:39:24;;;;;;;21.10;12.90;;;;;;;;;;7567313;19;20523;-71
2024/03/22 07:41:56;;;;;;;21.35;13.75;;;;;;;;;;7594021;19;20926;-73
2024/03/22 07:44:28;;;;;;;22.45;13.25;;;;;;;;;;7585019;19;20460;-72
2024/03/22 07:47:00;;;;;;;19.40;11.30;;;;;;;;;;7584150;19;20022;-72
2024/03/22 07:49:33;;;;;;;20.00;12.80;;;;;;;;;;7581523;19;20040;-72
2024/03/22 07:52:05;;;;;;;19.85;11.75;;;;;;;;;;7592160;19;20112;-72
2024/03/22 07:54:37;;;;;;;19.63;11.50;;;;;;;;;;7600020;19;20021;-72
2024/03/22 07:57:10;;;;;;;18.52;10.55;;;;;;;;;;7600518;19;20040;-72
2024/03/22 07:59:43;;;;;;;20.33;11.75;;;;;;;;;;7600301;19;21401;-72
2024/03/22 08:02:15;;;;;;;21.30;12.23;;;;;;;;;;7580222;19;20490;-72
2024/03/22 08:04:46;;;;;;;16.73;10.73;;;;;;;;;;7570894;19;20023;-73
2024/03/22 08:07:18;;;;;;;17.33;10.60;;;;;;;;;;7547571;19;20018;-73
2024/03/22 08:09:49;;;;;;;16.73;12.18;;;;;;;;;;7523855;19;20015;-71
2024/03/22 08:12:21;;;;;;;17.48;12.20;;;;;;;;;;7581578;19;20525;-73
2024/03/22 08:14:53;;;;;;;16.10;9.65;;;;;;;;;;7527808;19;20018;-73
2024/03/22 08:17:25;;;;;;;18.00;10.82;;;;;;;;;;7564114;19;20040;-73
2024/03/22 08:19:56;;;;;;;17.00;9.70;;;;;;;;;;7574234;19;20067;-73
2024/03/22 08:22:28;;;;;;;15.85;10.50;;;;;;;;;;7568062;19;20026;-73
2024/03/22 08:25:02;;;;;;;14.68;10.18;;;;;;;;;;7549281;19;20025;-71
2024/03/22 08:27:34;;;;;;;;;;;;;;;;;;7599761;19;20011;-71
2024/03/22 08:30:06;;;;;;;14.05;8.82;;;;;;;;;;7566041;19;19914;-72
2024/03/22 08:32:38;;;;;;;17.88;9.85;;;;;;;;;;7593342;19;20106;-72
2024/03/22 08:35:09;;;;;;;11.93;8.13;;;;;;;;;;7591970;19;20645;-71
2024/03/22 08:37:41;;;;;;;12.90;8.40;;;;;;;;;;7595475;19;20014;-71
2024/03/22 08:40:13;;;;;;;12.70;7.97;;;;;;;;;;7580388;19;20076;-71
2024/03/22 08:42:45;;;;;;;15.07;8.38;;;;;;;;;;7598266;19;20014;-73
2024/03/22 08:45:16;;;;;;;13.82;8.68;;;;;;;;;;7583930;19;20037;-72
2024/03/22 08:47:48;;;;;;;11.32;7.80;;;;;;;;;;7594554;19;20015;-73
2024/03/22 08:50:20;;;;;;;11.02;7.88;;;;;;;;;;7593822;19;20014;-73
2024/03/22 08:52:52;;;;;;;12.33;8.30;;;;;;;;;;7590358;19;20019;-71
2024/03/22 08:55:24;;;;;;;14.40;8.02;;;;;;;;;;7596920;19;20022;-71
2024/03/22 08:57:55;;;;;;;14.43;8.85;;;;;;;;;;7584381;19;20018;-71
2024/03/22 09:00:27;;;;;;;15.10;8.57;;;;;;;;;;7518528;19;20105;-71
2024/03/22 09:02:59;;;;;;;15.25;8.30;;;;;;;;;;7556948;19;20049;-71
2024/03/22 09:05:30;;;;;;;10.65;7.75;;;;;;;;;;7584201;19;20048;-71
2024/03/22 09:08:03;;;;;;;12.63;7.75;;;;;;;;;;7580413;19;20022;-71
2024/03/22 09:10:35;;;;;;;14.73;7.97;;;;;;;;;;7561607;19;20011;-71
2024/03/22 09:13:06;;;;;;;12.18;8.23;;;;;;;;;;7580609;19;20029;-73
2024/03/22 09:15:38;;;;;;;10.95;7.55;;;;;;;;;;7585110;19;20444;-71
2024/03/22 09:18:12;;;;;;;10.98;7.70;;;;;;;;;;7584769;19;20018;-71
2024/03/22 09:20:44;;;;;;;16.98;7.60;;;;;;;;;;7565209;19;20535;-71
2024/03/22 09:23:15;;;;;;;19.73;7.88;;;;;;;;;;7576884;19;20035;-71
2024/03/22 09:25:47;;;;;;;14.27;7.95;;;;;;;;;;7586436;19;20039;-71
2024/03/22 09:28:18;;;;;;;11.13;7.35;;;;;;;;;;7590296;19;20015;-71
2024/03/22 09:30:50;;;;;;;11.40;7.32;;;;;;;;;;7572754;19;20019;-71
2024/03/22 09:33:22;;;;;;;11.07;7.28;;;;;;;;;;7576914;19;20035;-71
2024/03/22 09:35:53;;;;;;;9.63;7.15;;;;;;;;;;7576909;19;20878;-71
2024/03/22 09:38:25;;;;;;;10.25;6.95;;;;;;;;;;7574449;19;20025;-70
2024/03/22 09:40:57;;;;;;;13.00;7.45;;;;;;;;;;7557075;19;20015;-71
2024/03/22 09:43:28;;;;;;;10.25;6.90;;;;;;;;;;7589051;19;20015;-70
2024/03/22 09:46:00;;;;;;;12.68;6.40;;;;;;;;;;7573955;19;20802;-72
2024/03/22 09:48:32;;;;;;;14.25;6.50;;;;;;;;;;7572691;19;20102;-71
2024/03/22 09:51:04;;;;;;;13.20;6.65;;;;;;;;;;7554850;19;20376;-71
2024/03/22 09:53:36;;;;;;;14.70;7.43;;;;;;;;;;7579913;19;20818;-71
2024/03/22 09:56:08;;;;;;;10.85;6.50;;;;;;;;;;7593380;19;20037;-71
2024/03/22 09:58:39;;;;;;;6.93;5.53;;;;;;;;;;7577488;19;21384;-72
2024/03/22 10:01:12;;;;;;;9.82;6.88;;;;;;;;;;7565576;19;20641;-72
2024/03/22 10:03:45;;;;;;;12.07;6.50;;;;;;;;;;7577007;19;20015;-71
2024/03/22 10:06:17;;;;;;;11.40;6.55;;;;;;;;;;7583334;19;20017;-71
2024/03/22 10:08:49;;;;;;;11.82;5.97;;;;;;;;;;7584128;19;20082;-71
2024/03/22 10:11:20;;;;;;;9.63;5.05;;;;;;;;;;7571500;19;20018;-71
2024/03/22 10:13:52;;;;;;;8.63;5.97;;;;;;;;;;7584881;19;20922;-71
2024/03/22 10:16:23;;;;;;;9.30;5.47;;;;;;;;;;7576230;19;20033;-71
2024/03/22 10:18:55;;;;;;;11.95;6.00;;;;;;;;;;7590593;19;20044;-72
2024/03/22 10:21:28;;;;;;;10.85;5.40;;;;;;;;;;7578815;19;20361;-71
2024/03/22 10:24:00;;;;;;;12.73;5.45;;;;;;;;;;7581454;19;20101;-71
2024/03/22 10:26:33;;;;;;;7.97;5.10;;;;;;;;;;7604828;19;20025;-71
2024/03/22 10:29:06;;;;;;;13.85;5.70;;;;;;;;;;7602723;19;20030;-71
2024/03/22 10:31:39;;;;;;;8.30;4.70;;;;;;;;;;7572713;19;20590;-71
2024/03/22 10:34:11;;;;;;;11.05;5.80;;;;;;;;;;7583768;19;20022;-72
2024/03/22 10:36:44;;;;;;;10.90;7.00;;;;;;;;;;7576945;19;20526;-72
2024/03/22 10:39:19;;;;;;;7.03;5.67;;;;;;;;;;7580432;19;20015;-72
2024/03/22 10:41:51;;;;;;;9.40;5.95;;;;;;;;;;7578073;19;20025;-71
2024/03/22 10:44:22;;;;;;;10.82;5.10;;;;;;;;;;7549618;19;20501;-71
2024/03/22 10:46:56;;;;;;;10.00;5.27;;;;;;;;;;7570449;19;20035;-72
2024/03/22 10:49:30;;;;;;;6.68;4.55;;;;;;;;;;7582653;19;20030;-71
2024/03/22 10:52:03;;;;;;;9.10;5.10;;;;;;;;;;7574870;19;20804;-71
2024/03/22 10:54:36;;;;;;;8.75;4.80;;;;;;;;;;7578326;19;20025;-71
2024/03/22 10:57:12;;;;;;;8.75;5.13;;;;;;;;;;7571478;19;21136;-71
2024/03/22 10:59:43;;;;;;;15.48;5.53;;;;;;;;;;7551188;19;20018;-71
2024/03/22 11:02:17;;;;;;;7.93;4.90;;;;;;;;;;7547137;19;20018;-71
2024/03/22 11:04:58;;;;;;;7.38;4.60;;;;;;;;;;7572003;19;20018;-71
2024/03/22 11:07:33;;;;;;;10.88;5.30;;;;;;;;;;7568916;19;20758;-72
2024/03/22 11:10:06;;;;;;;7.65;4.60;;;;;;;;;;7583193;19;20018;-71
2024/03/22 11:12:38;;;;;;;9.48;4.90;;;;;;;;;;7601088;19;20029;-71
2024/03/22 11:15:12;;;;;;;10.20;5.35;;;;;;;;;;7600252;19;20033;-70
2024/03/22 11:17:44;;;;;;;7.68;5.13;;;;;;;;;;7600095;19;20022;-72
2024/03/22 11:20:15;;;;;;;10.00;5.32;;;;;;;;;;7601565;19;20015;-71
2024/03/22 11:22:47;;;;;;;8.98;5.00;;;;;;;;;;7600976;19;20014;-71
2024/03/22 11:25:19;;;;;;;11.85;5.60;;;;;;;;;;7595316;19;20411;-72
2024/03/22 11:27:50;;;;;;;12.23;6.53;;;;;;;;;;7588069;19;20025;-71
2024/03/22 11:30:24;;;;;;;9.23;5.75;;;;;;;;;;7594901;19;21247;-71
2024/03/22 11:32:56;;;;;;;10.02;6.55;;;;;;;;;;7590447;19;20046;-71
2024/03/22 11:35:28;;;;;;;8.05;5.28;;;;;;;;;;7590826;19;20049;-72
2024/03/22 11:37:59;;;;;;;8.60;5.28;;;;;;;;;;7570451;19;20650;-71
2024/03/22 11:40:33;;;;;;;7.55;5.60;;;;;;;;;;7589750;19;20011;-71
2024/03/22 11:43:05;;;;;;;6.03;4.55;;;;;;;;;;7594287;19;20018;-71
2024/03/22 11:45:37;;;;;;;9.80;5.05;;;;;;;;;;7597348;19;20018;-71
2024/03/22 11:48:10;;;;;;;8.02;4.47;;;;;;;;;;7597378;19;20035;-71
2024/03/22 11:50:41;;;;;;;8.63;4.68;;;;;;;;;;7602589;19;20033;-72
2024/03/22 11:53:13;;;;;;;5.25;4.32;;;;;;;;;;7600968;19;20018;-71
2024/03/22 11:55:45;;;;;;;6.63;4.18;;;;;;;;;;7596076;19;20039;-71
2024/03/22 11:58:18;;;;;;;6.68;4.53;;;;;;;;;;7596200;19;20006;-72
2024/03/22 12:00:50;;;;;;;;;;;;;;;;;;7599433;19;20018;-72
2024/03/22 12:03:21;;;;;;;14.02;5.28;;;;;;;;;;7585336;19;19949;-72
2024/03/22 12:05:55;;;;;;;11.98;5.30;;;;;;;;;;7569580;19;20014;-71
2024/03/22 12:08:26;;;;;;;;;;;;;;;;;;7553223;19;20025;-72
2024/03/22 12:10:58;;;;;;;6.35;4.57;;;;;;;;;;7566679;19;19923;-71
2024/03/22 12:13:29;;;;;;;7.50;4.88;;;;;;;;;;7564936;19;20112;-71
2024/03/22 12:16:02;;;;;;;9.25;5.53;;;;;;;;;;7573259;19;20011;-71
2024/03/22 12:18:33;;;;;;;6.00;4.30;;;;;;;;;;7572244;19;20106;-72
2024/03/22 12:21:05;;;;;;;8.70;5.05;;;;;;;;;;7540492;19;20026;-71
2024/03/22 12:23:37;;;;;;;8.90;5.05;;;;;;;;;;7550065;19;20022;-73
2024/03/22 12:26:08;;;;;;;12.23;5.47;;;;;;;;;;7555653;19;24909;-72
2024/03/22 12:28:40;;;;;;;6.55;4.05;;;;;;;;;;7567242;19;20014;-71
2024/03/22 12:31:11;;;;;;;6.70;4.38;;;;;;;;;;7557595;19;20276;-72
2024/03/22 12:33:43;;;;;;;9.93;5.40;;;;;;;;;;7555792;19;20033;-71
2024/03/22 12:36:15;;;;;;;8.85;4.57;;;;;;;;;;7568209;19;20023;-70
2024/03/22 12:38:46;;;;;;;10.35;4.63;;;;;;;;;;7568661;19;20038;-71
2024/03/22 12:41:18;;;;;;;10.00;4.72;;;;;;;;;;7578569;19;20022;-71
2024/03/22 12:43:50;;;;;;;8.90;4.55;;;;;;;;;;7561459;19;20006;-71
2024/03/22 12:46:22;;;;;;;7.07;4.90;;;;;;;;;;7575441;19;20637;-71
2024/03/22 12:48:54;;;;;;;7.30;4.85;;;;;;;;;;7567321;19;20025;-71
2024/03/22 12:51:25;;;;;;;6.63;4.80;;;;;;;;;;7560392;19;20019;-71
2024/03/22 12:53:57;;;;;;;6.82;5.10;;;;;;;;;;7585257;19;20022;-71
2024/03/22 12:56:29;;;;;;;7.97;5.45;;;;;;;;;;7573480;19;21366;-71
2024/03/22 12:59:00;;;;;;;4.78;3.70;;;;;;;;;;7548564;19;20061;-72
2024/03/22 13:01:32;;;;;;;9.75;3.92;;;;;;;;;;7537671;19;20014;-71
2024/03/22 13:04:03;;;;;;;8.88;4.22;;;;;;;;;;7573649;19;20035;-71
2024/03/22 13:06:35;;;;;;;9.40;4.43;;;;;;;;;;7582191;19;20010;-71
2024/03/22 13:09:09;;;;;;;10.43;3.95;;;;;;;;;;7526881;19;20015;-71
2024/03/22 13:11:41;;;;;;;7.65;4.55;;;;;;;;;;7580929;19;20034;-72
2024/03/22 13:14:14;;;;;;;9.13;4.70;;;;;;;;;;7565771;19;20015;-72
2024/03/22 13:16:46;;;;;;;9.27;4.13;;;;;;;;;;7572696;19;20025;-72
2024/03/22 13:19:18;;;;;;;6.35;3.25;;;;;;;;;;7570207;19;20025;-72
2024/03/22 13:21:50;;;;;;;5.95;3.80;;;;;;;;;;7583706;19;20018;-72
2024/03/22 13:24:22;;;;;;;5.90;4.17;;;;;;;;;;7559817;19;20021;-71
2024/03/22 13:26:55;;;;;;;6.95;4.00;;;;;;;;;;7577964;19;20296;-71
2024/03/22 13:29:27;;;;;;;4.80;3.40;;;;;;;;;;7571146;19;20015;-72
2024/03/22 13:31:58;;;;;;;5.63;2.47;;;;;;;;;;7562791;19;20136;-72
2024/03/22 13:34:30;;;;;;;7.60;2.50;;;;;;;;;;7550776;19;20078;-71
2024/03/22 13:37:02;;;;;;;4.22;2.65;;;;;;;;;;7572868;19;20006;-71
2024/03/22 13:39:34;;;;;;;4.13;2.30;;;;;;;;;;7517663;19;21264;-71
2024/03/22 13:42:07;;;;;;;5.20;2.25;;;;;;;;;;7549099;19;20018;-71
2024/03/22 13:44:38;;;;;;;6.20;2.92;;;;;;;;;;7562718;19;20006;-72
2024/03/22 13:47:10;;;;;;;5.65;2.50;;;;;;;;;;7552860;19;20086;-71
2024/03/22 13:49:42;;;;;;;4.35;2.58;;;;;;;;;;7569284;19;20016;-71
2024/03/22 13:52:14;;;;;;;3.27;2.50;;;;;;;;;;7567867;19;20014;-71
2024/03/22 13:54:46;;;;;;;5.72;2.67;;;;;;;;;;7577234;19;20015;-71
2024/03/22 13:57:18;;;;;;;3.97;2.60;;;;;;;;;;7582997;19;20026;-73
2024/03/22 13:59:50;;;;;;;3.67;2.20;;;;;;;;;;7566638;19;20712;-71
2024/03/22 14:02:21;;;;;;;3.65;2.20;;;;;;;;;;7560925;19;20018;-71
2024/03/22 14:04:53;;;;;;;3.33;2.42;;;;;;;;;;7592048;19;20018;-71
2024/03/22 14:07:25;;;;;;;3.92;2.08;;;;;;;;;;7594728;19;20022;-71
2024/03/22 14:09:56;;;;;;;7.10;2.35;;;;;;;;;;7596333;19;20022;-72
2024/03/22 14:12:28;;;;;;;3.67;2.40;;;;;;;;;;7579281;19;20033;-72
2024/03/22 14:15:00;;;;;;;5.05;2.55;;;;;;;;;;7569855;19;20015;-72
2024/03/22 14:17:32;;;;;;;5.03;2.30;;;;;;;;;;7562870;19;21280;-71
2024/03/22 14:20:11;;;;;;;4.45;2.40;;;;;;;;;;7589326;19;20561;-72
2024/03/22 14:22:43;;;;;;;4.45;2.35;;;;;;;;;;7572489;19;20018;-72
2024/03/22 14:25:15;;;;;;;3.78;2.40;;;;;;;;;;7580560;19;20058;-72
2024/03/22 14:27:46;;;;;;;5.07;2.63;;;;;;;;;;7574366;19;20010;-72
2024/03/22 14:30:19;;;;;;;5.45;2.28;;;;;;;;;;7582894;19;20117;-71
2024/03/22 14:32:52;;;;;;;6.40;2.77;;;;;;;;;;7565651;19;20022;-71
2024/03/22 14:35:24;;;;;;;4.10;2.15;;;;;;;;;;7566773;19;20094;-72
2024/03/22 14:37:55;;;;;;;4.63;2.53;;;;;;;;;;7590668;19;20026;-72
2024/03/22 14:40:27;;;;;;;2.35;1.95;;;;;;;;;;7581644;19;20082;-71
2024/03/22 14:43:00;;;;;;;4.00;2.50;;;;;;;;;;7580745;19;20033;-71
2024/03/22 14:45:32;;;;;;;4.82;2.60;;;;;;;;;;7578629;19;20692;-72
2024/03/22 14:48:05;;;;;;;7.68;2.70;;;;;;;;;;7587246;19;20035;-73
2024/03/22 14:50:39;;;;;;;4.47;2.28;;;;;;;;;;7576996;19;20395;-71
2024/03/22 14:53:11;;;;;;;5.30;2.10;;;;;;;;;;7574467;19;20025;-72
2024/03/22 14:56:03;;;;;;;3.42;2.20;;;;;;;;;;7569522;19;20010;-71